Terminal Aerodrome Forecast
Issued by NWS

Home | Current Version | Previous Version | Text Only | Print | Product List | Glossary On
Versions: 1 2 3 4 5 6 7 8 9 10 11 12
000
FTUS42 TJSJ 300500
TAFJBQ
TAF
TJBQ 300536Z 3006/3106 12006KT P6SM SKC
     FM301350 03006KT P6SM SCT040
     FM301650 06012KT P6SM VCTS BKN040CB PROB30 3018/3021 6SM -TSRA
      BKN030CB
     FM302350 10006KT P6SM SCT040
      AMD NOT SKED TIL 301100=

USA.gov is the U.S. government's official web portal to all federal, state and local government web resources and services.